sensor_id;sensor_type;location;lat;lon;timestamp;P1;durP1;ratioP1;P2;durP2;ratioP2
18649;SDS011;9454;53.516;10.478;2023-05-07T00:00:09;10.48;;;3.90;;
18649;SDS011;9454;53.516;10.478;2023-05-07T00:03:44;8.13;;;3.78;;
18649;SDS011;9454;53.516;10.478;2023-05-07T00:06:50;10.93;;;4.53;;
18649;SDS011;9454;53.516;10.478;2023-05-07T00:09:53;6.18;;;3.70;;
18649;SDS011;9454;53.516;10.478;2023-05-07T00:12:58;8.57;;;4.35;;
18649;SDS011;9454;53.516;10.478;2023-05-07T00:16:02;10.15;;;4.00;;
18649;SDS011;9454;53.516;10.478;2023-05-07T00:19:08;8.35;;;4.32;;
18649;SDS011;9454;53.516;10.478;2023-05-07T00:22:13;6.90;;;2.95;;
18649;SDS011;9454;53.516;10.478;2023-05-07T00:25:19;9.82;;;4.13;;
18649;SDS011;9454;53.516;10.478;2023-05-07T00:28:33;6.60;;;4.05;;
18649;SDS011;9454;53.516;10.478;2023-05-07T00:31:48;6.10;;;3.65;;
18649;SDS011;9454;53.516;10.478;2023-05-07T00:34:52;5.53;;;3.40;;
18649;SDS011;9454;53.516;10.478;2023-05-07T00:37:58;6.30;;;3.47;;
18649;SDS011;9454;53.516;10.478;2023-05-07T00:41:02;7.82;;;3.85;;
18649;SDS011;9454;53.516;10.478;2023-05-07T00:44:11;7.47;;;3.72;;
18649;SDS011;9454;53.516;10.478;2023-05-07T00:47:14;8.63;;;3.72;;
18649;SDS011;9454;53.516;10.478;2023-05-07T00:50:20;8.02;;;3.83;;
18649;SDS011;9454;53.516;10.478;2023-05-07T00:53:26;9.38;;;3.40;;
18649;SDS011;9454;53.516;10.478;2023-05-07T00:56:30;7.88;;;3.63;;
18649;SDS011;9454;53.516;10.478;2023-05-07T00:59:34;8.77;;;3.90;;
18649;SDS011;9454;53.516;10.478;2023-05-07T01:02:39;9.63;;;4.15;;
18649;SDS011;9454;53.516;10.478;2023-05-07T01:05:44;5.70;;;3.38;;
18649;SDS011;9454;53.516;10.478;2023-05-07T01:08:56;4.90;;;3.33;;
18649;SDS011;9454;53.516;10.478;2023-05-07T01:12:01;8.90;;;3.28;;
18649;SDS011;9454;53.516;10.478;2023-05-07T01:15:05;5.90;;;3.42;;
18649;SDS011;9454;53.516;10.478;2023-05-07T01:18:09;6.50;;;3.20;;
18649;SDS011;9454;53.516;10.478;2023-05-07T01:21:13;5.45;;;3.22;;
18649;SDS011;9454;53.516;10.478;2023-05-07T01:24:26;5.65;;;3.17;;
18649;SDS011;9454;53.516;10.478;2023-05-07T01:27:31;6.18;;;2.95;;
18649;SDS011;9454;53.516;10.478;2023-05-07T01:30:37;5.78;;;3.10;;
18649;SDS011;9454;53.516;10.478;2023-05-07T01:33:46;9.32;;;4.05;;
18649;SDS011;9454;53.516;10.478;2023-05-07T01:36:52;5.53;;;3.58;;
18649;SDS011;9454;53.516;10.478;2023-05-07T01:40:01;6.35;;;3.42;;
18649;SDS011;9454;53.516;10.478;2023-05-07T01:43:06;7.65;;;4.00;;
18649;SDS011;9454;53.516;10.478;2023-05-07T01:46:11;8.07;;;3.55;;
18649;SDS011;9454;53.516;10.478;2023-05-07T01:49:16;5.88;;;3.72;;
18649;SDS011;9454;53.516;10.478;2023-05-07T01:52:22;8.20;;;4.07;;
18649;SDS011;9454;53.516;10.478;2023-05-07T01:55:32;7.25;;;3.95;;
18649;SDS011;9454;53.516;10.478;2023-05-07T02:03:11;5.13;;;3.15;;
18649;SDS011;9454;53.516;10.478;2023-05-07T02:06:25;7.85;;;3.88;;
18649;SDS011;9454;53.516;10.478;2023-05-07T02:09:35;8.40;;;4.22;;
18649;SDS011;9454;53.516;10.478;2023-05-07T02:12:41;8.18;;;3.60;;
18649;SDS011;9454;53.516;10.478;2023-05-07T02:15:47;6.68;;;4.00;;
18649;SDS011;9454;53.516;10.478;2023-05-07T02:18:53;8.05;;;3.97;;
18649;SDS011;9454;53.516;10.478;2023-05-07T02:21:59;8.57;;;3.95;;
18649;SDS011;9454;53.516;10.478;2023-05-07T02:25:04;8.38;;;3.75;;
18649;SDS011;9454;53.516;10.478;2023-05-07T02:28:12;5.93;;;3.83;;
18649;SDS011;9454;53.516;10.478;2023-05-07T02:31:26;6.47;;;3.95;;
18649;SDS011;9454;53.516;10.478;2023-05-07T02:34:30;8.77;;;4.40;;
18649;SDS011;9454;53.516;10.478;2023-05-07T02:37:34;7.57;;;4.40;;
18649;SDS011;9454;53.516;10.478;2023-05-07T02:40:40;9.93;;;4.32;;
18649;SDS011;9454;53.516;10.478;2023-05-07T02:43:48;6.53;;;3.38;;
18649;SDS011;9454;53.516;10.478;2023-05-07T02:46:52;7.93;;;4.07;;
18649;SDS011;9454;53.516;10.478;2023-05-07T02:49:56;8.23;;;4.05;;
18649;SDS011;9454;53.516;10.478;2023-05-07T02:53:00;8.63;;;3.85;;
18649;SDS011;9454;53.516;10.478;2023-05-07T02:56:06;8.05;;;3.88;;
18649;SDS011;9454;53.516;10.478;2023-05-07T02:59:16;5.18;;;3.10;;
18649;SDS011;9454;53.516;10.478;2023-05-07T03:02:19;5.10;;;3.17;;
18649;SDS011;9454;53.516;10.478;2023-05-07T03:05:23;9.23;;;4.43;;
18649;SDS011;9454;53.516;10.478;2023-05-07T03:08:28;6.32;;;4.13;;
18649;SDS011;9454;53.516;10.478;2023-05-07T03:11:31;6.97;;;3.47;;
18649;SDS011;9454;53.516;10.478;2023-05-07T03:14:36;7.78;;;4.03;;
18649;SDS011;9454;53.516;10.478;2023-05-07T03:17:42;9.45;;;3.75;;
18649;SDS011;9454;53.516;10.478;2023-05-07T03:20:47;7.22;;;3.58;;
18649;SDS011;9454;53.516;10.478;2023-05-07T03:23:52;6.57;;;3.35;;
18649;SDS011;9454;53.516;10.478;2023-05-07T03:26:56;8.55;;;3.42;;
18649;SDS011;9454;53.516;10.478;2023-05-07T03:30:02;8.95;;;3.33;;
18649;SDS011;9454;53.516;10.478;2023-05-07T03:33:07;5.25;;;3.70;;
18649;SDS011;9454;53.516;10.478;2023-05-07T03:36:12;6.65;;;3.60;;
18649;SDS011;9454;53.516;10.478;2023-05-07T03:39:16;8.63;;;4.53;;
18649;SDS011;9454;53.516;10.478;2023-05-07T03:42:21;7.45;;;4.10;;
18649;SDS011;9454;53.516;10.478;2023-05-07T03:45:28;6.70;;;3.55;;
18649;SDS011;9454;53.516;10.478;2023-05-07T03:48:41;10.38;;;4.30;;
18649;SDS011;9454;53.516;10.478;2023-05-07T03:51:48;10.57;;;3.95;;
18649;SDS011;9454;53.516;10.478;2023-05-07T03:54:53;6.72;;;3.58;;
18649;SDS011;9454;53.516;10.478;2023-05-07T03:57:56;6.00;;;3.58;;
18649;SDS011;9454;53.516;10.478;2023-05-07T04:01:04;6.70;;;3.90;;
18649;SDS011;9454;53.516;10.478;2023-05-07T04:04:09;9.32;;;3.33;;
18649;SDS011;9454;53.516;10.478;2023-05-07T04:07:13;11.10;;;3.55;;
18649;SDS011;9454;53.516;10.478;2023-05-07T04:10:23;5.57;;;3.35;;
18649;SDS011;9454;53.516;10.478;2023-05-07T04:13:34;6.88;;;3.20;;
18649;SDS011;9454;53.516;10.478;2023-05-07T04:16:41;5.80;;;3.65;;
18649;SDS011;9454;53.516;10.478;2023-05-07T04:19:47;7.80;;;3.25;;
18649;SDS011;9454;53.516;10.478;2023-05-07T04:22:52;5.78;;;3.13;;
18649;SDS011;9454;53.516;10.478;2023-05-07T04:25:57;5.90;;;3.22;;
18649;SDS011;9454;53.516;10.478;2023-05-07T04:29:11;7.50;;;3.95;;
18649;SDS011;9454;53.516;10.478;2023-05-07T04:32:17;5.85;;;3.47;;
18649;SDS011;9454;53.516;10.478;2023-05-07T04:35:21;7.45;;;3.40;;
18649;SDS011;9454;53.516;10.478;2023-05-07T04:38:27;5.47;;;3.08;;
18649;SDS011;9454;53.516;10.478;2023-05-07T04:41:32;6.22;;;3.17;;
18649;SDS011;9454;53.516;10.478;2023-05-07T04:44:39;7.60;;;3.20;;
18649;SDS011;9454;53.516;10.478;2023-05-07T04:47:44;5.55;;;3.22;;
18649;SDS011;9454;53.516;10.478;2023-05-07T04:50:52;8.43;;;2.85;;
18649;SDS011;9454;53.516;10.478;2023-05-07T04:53:56;7.68;;;3.15;;
18649;SDS011;9454;53.516;10.478;2023-05-07T04:57:04;6.28;;;3.42;;
18649;SDS011;9454;53.516;10.478;2023-05-07T05:00:08;5.00;;;3.15;;
18649;SDS011;9454;53.516;10.478;2023-05-07T05:03:19;5.70;;;3.42;;
18649;SDS011;9454;53.516;10.478;2023-05-07T05:06:23;5.03;;;3.45;;
18649;SDS011;9454;53.516;10.478;2023-05-07T05:09:28;5.85;;;3.00;;
18649;SDS011;9454;53.516;10.478;2023-05-07T05:12:32;3.70;;;2.83;;
18649;SDS011;9454;53.516;10.478;2023-05-07T05:15:36;4.78;;;2.97;;
18649;SDS011;9454;53.516;10.478;2023-05-07T05:18:41;7.88;;;3.65;;
18649;SDS011;9454;53.516;10.478;2023-05-07T05:21:47;5.40;;;3.13;;
18649;SDS011;9454;53.516;10.478;2023-05-07T05:24:51;6.72;;;2.92;;
18649;SDS011;9454;53.516;10.478;2023-05-07T05:27:56;5.60;;;2.90;;
18649;SDS011;9454;53.516;10.478;2023-05-07T05:31:00;7.57;;;3.53;;
18649;SDS011;9454;53.516;10.478;2023-05-07T05:34:09;6.47;;;2.83;;
18649;SDS011;9454;53.516;10.478;2023-05-07T05:37:16;3.88;;;2.53;;
18649;SDS011;9454;53.516;10.478;2023-05-07T05:40:24;4.72;;;2.63;;
18649;SDS011;9454;53.516;10.478;2023-05-07T05:43:29;9.57;;;3.30;;
18649;SDS011;9454;53.516;10.478;2023-05-07T05:46:33;4.65;;;2.90;;
18649;SDS011;9454;53.516;10.478;2023-05-07T05:49:40;7.53;;;2.78;;
18649;SDS011;9454;53.516;10.478;2023-05-07T05:52:48;3.38;;;2.15;;
18649;SDS011;9454;53.516;10.478;2023-05-07T05:55:55;4.82;;;2.28;;
18649;SDS011;9454;53.516;10.478;2023-05-07T05:58:59;4.47;;;3.00;;
18649;SDS011;9454;53.516;10.478;2023-05-07T06:02:03;5.72;;;2.95;;
18649;SDS011;9454;53.516;10.478;2023-05-07T06:05:11;5.95;;;3.20;;
18649;SDS011;9454;53.516;10.478;2023-05-07T06:08:16;4.07;;;2.53;;
18649;SDS011;9454;53.516;10.478;2023-05-07T06:11:19;6.10;;;2.45;;
18649;SDS011;9454;53.516;10.478;2023-05-07T06:14:24;4.80;;;3.10;;
18649;SDS011;9454;53.516;10.478;2023-05-07T06:17:31;4.18;;;2.60;;
18649;SDS011;9454;53.516;10.478;2023-05-07T06:20:38;4.35;;;2.33;;
18649;SDS011;9454;53.516;10.478;2023-05-07T06:23:47;4.15;;;2.10;;
18649;SDS011;9454;53.516;10.478;2023-05-07T06:26:53;8.32;;;2.33;;
18649;SDS011;9454;53.516;10.478;2023-05-07T06:30:03;4.70;;;2.95;;
18649;SDS011;9454;53.516;10.478;2023-05-07T06:33:10;5.82;;;2.88;;
18649;SDS011;9454;53.516;10.478;2023-05-07T06:36:19;3.92;;;2.50;;
18649;SDS011;9454;53.516;10.478;2023-05-07T06:39:24;3.67;;;2.17;;
18649;SDS011;9454;53.516;10.478;2023-05-07T06:42:28;5.28;;;2.75;;
18649;SDS011;9454;53.516;10.478;2023-05-07T06:45:50;4.20;;;2.35;;
18649;SDS011;9454;53.516;10.478;2023-05-07T06:48:55;4.22;;;2.53;;
18649;SDS011;9454;53.516;10.478;2023-05-07T06:52:04;5.10;;;2.70;;
18649;SDS011;9454;53.516;10.478;2023-05-07T06:55:08;3.25;;;2.20;;
18649;SDS011;9454;53.516;10.478;2023-05-07T06:58:13;3.42;;;2.38;;
18649;SDS011;9454;53.516;10.478;2023-05-07T07:01:17;4.35;;;2.80;;
18649;SDS011;9454;53.516;10.478;2023-05-07T07:04:21;3.65;;;2.00;;
18649;SDS011;9454;53.516;10.478;2023-05-07T07:07:35;4.95;;;2.75;;
18649;SDS011;9454;53.516;10.478;2023-05-07T07:10:40;5.07;;;2.38;;
18649;SDS011;9454;53.516;10.478;2023-05-07T07:13:48;3.60;;;2.75;;
18649;SDS011;9454;53.516;10.478;2023-05-07T07:16:53;3.03;;;2.30;;
18649;SDS011;9454;53.516;10.478;2023-05-07T07:19:59;4.30;;;2.85;;
18649;SDS011;9454;53.516;10.478;2023-05-07T07:23:05;5.32;;;2.90;;
18649;SDS011;9454;53.516;10.478;2023-05-07T07:26:09;3.42;;;2.25;;
18649;SDS011;9454;53.516;10.478;2023-05-07T07:29:17;5.57;;;2.20;;
18649;SDS011;9454;53.516;10.478;2023-05-07T07:32:25;4.47;;;2.50;;
18649;SDS011;9454;53.516;10.478;2023-05-07T07:35:31;2.97;;;1.85;;
18649;SDS011;9454;53.516;10.478;2023-05-07T07:38:37;5.10;;;2.22;;
18649;SDS011;9454;53.516;10.478;2023-05-07T07:41:43;5.10;;;2.67;;
18649;SDS011;9454;53.516;10.478;2023-05-07T07:44:58;3.80;;;2.42;;
18649;SDS011;9454;53.516;10.478;2023-05-07T07:48:06;2.88;;;2.10;;
18649;SDS011;9454;53.516;10.478;2023-05-07T07:51:12;5.10;;;2.70;;
18649;SDS011;9454;53.516;10.478;2023-05-07T07:54:18;3.97;;;2.10;;
18649;SDS011;9454;53.516;10.478;2023-05-07T07:57:22;3.35;;;2.08;;
18649;SDS011;9454;53.516;10.478;2023-05-07T08:00:29;3.72;;;2.17;;
18649;SDS011;9454;53.516;10.478;2023-05-07T08:03:35;2.95;;;2.35;;
18649;SDS011;9454;53.516;10.478;2023-05-07T08:06:42;4.00;;;2.45;;
18649;SDS011;9454;53.516;10.478;2023-05-07T08:09:47;2.60;;;2.03;;
18649;SDS011;9454;53.516;10.478;2023-05-07T08:12:55;6.30;;;2.45;;
18649;SDS011;9454;53.516;10.478;2023-05-07T08:15:59;3.50;;;2.47;;
18649;SDS011;9454;53.516;10.478;2023-05-07T08:19:05;3.40;;;2.22;;
18649;SDS011;9454;53.516;10.478;2023-05-07T08:22:09;4.22;;;2.10;;
18649;SDS011;9454;53.516;10.478;2023-05-07T08:25:14;6.28;;;2.30;;
18649;SDS011;9454;53.516;10.478;2023-05-07T08:28:19;5.97;;;2.42;;
18649;SDS011;9454;53.516;10.478;2023-05-07T08:31:27;3.05;;;2.10;;
18649;SDS011;9454;53.516;10.478;2023-05-07T08:34:34;7.32;;;2.25;;
18649;SDS011;9454;53.516;10.478;2023-05-07T08:37:44;7.07;;;2.67;;
18649;SDS011;9454;53.516;10.478;2023-05-07T08:40:53;3.08;;;2.13;;
18649;SDS011;9454;53.516;10.478;2023-05-07T08:43:57;4.75;;;2.25;;
18649;SDS011;9454;53.516;10.478;2023-05-07T08:47:06;3.08;;;2.05;;
18649;SDS011;9454;53.516;10.478;2023-05-07T08:50:11;4.10;;;2.40;;
18649;SDS011;9454;53.516;10.478;2023-05-07T08:53:18;4.05;;;2.30;;
18649;SDS011;9454;53.516;10.478;2023-05-07T08:56:25;5.45;;;2.63;;
18649;SDS011;9454;53.516;10.478;2023-05-07T08:59:41;5.20;;;2.40;;
18649;SDS011;9454;53.516;10.478;2023-05-07T09:02:46;3.30;;;2.35;;
18649;SDS011;9454;53.516;10.478;2023-05-07T09:05:50;4.32;;;2.60;;
18649;SDS011;9454;53.516;10.478;2023-05-07T09:09:01;5.15;;;2.08;;
18649;SDS011;9454;53.516;10.478;2023-05-07T09:12:09;4.53;;;2.45;;
18649;SDS011;9454;53.516;10.478;2023-05-07T09:15:15;2.90;;;2.10;;
18649;SDS011;9454;53.516;10.478;2023-05-07T09:18:19;4.07;;;2.15;;
18649;SDS011;9454;53.516;10.478;2023-05-07T09:21:24;4.63;;;2.40;;
18649;SDS011;9454;53.516;10.478;2023-05-07T09:24:31;4.80;;;2.25;;
18649;SDS011;9454;53.516;10.478;2023-05-07T09:27:50;2.67;;;2.00;;
18649;SDS011;9454;53.516;10.478;2023-05-07T09:30:54;2.92;;;2.38;;
18649;SDS011;9454;53.516;10.478;2023-05-07T09:34:00;9.48;;;2.33;;
18649;SDS011;9454;53.516;10.478;2023-05-07T09:37:06;4.25;;;2.47;;
18649;SDS011;9454;53.516;10.478;2023-05-07T09:40:20;2.53;;;1.90;;
18649;SDS011;9454;53.516;10.478;2023-05-07T09:43:31;3.35;;;2.25;;
18649;SDS011;9454;53.516;10.478;2023-05-07T09:46:38;3.65;;;1.95;;
18649;SDS011;9454;53.516;10.478;2023-05-07T09:49:50;4.15;;;2.40;;
18649;SDS011;9454;53.516;10.478;2023-05-07T09:52:59;3.50;;;2.15;;
18649;SDS011;9454;53.516;10.478;2023-05-07T09:56:03;2.78;;;2.03;;
18649;SDS011;9454;53.516;10.478;2023-05-07T09:59:12;3.13;;;2.03;;
18649;SDS011;9454;53.516;10.478;2023-05-07T10:02:19;2.97;;;1.90;;
18649;SDS011;9454;53.516;10.478;2023-05-07T10:05:28;5.47;;;2.10;;
18649;SDS011;9454;53.516;10.478;2023-05-07T10:08:41;2.95;;;2.05;;
18649;SDS011;9454;53.516;10.478;2023-05-07T10:11:53;5.28;;;1.95;;
18649;SDS011;9454;53.516;10.478;2023-05-07T10:15:05;2.33;;;1.73;;
18649;SDS011;9454;53.516;10.478;2023-05-07T10:18:10;3.40;;;1.95;;
18649;SDS011;9454;53.516;10.478;2023-05-07T10:21:16;7.18;;;1.67;;
18649;SDS011;9454;53.516;10.478;2023-05-07T10:24:25;4.97;;;1.90;;
18649;SDS011;9454;53.516;10.478;2023-05-07T10:27:33;5.40;;;2.35;;
18649;SDS011;9454;53.516;10.478;2023-05-07T10:30:45;3.25;;;2.08;;
18649;SDS011;9454;53.516;10.478;2023-05-07T10:33:54;12.70;;;2.20;;
18649;SDS011;9454;53.516;10.478;2023-05-07T10:37:00;2.45;;;2.00;;
18649;SDS011;9454;53.516;10.478;2023-05-07T10:40:06;3.92;;;2.30;;
18649;SDS011;9454;53.516;10.478;2023-05-07T10:43:12;2.08;;;1.50;;
18649;SDS011;9454;53.516;10.478;2023-05-07T10:46:26;3.22;;;1.63;;
18649;SDS011;9454;53.516;10.478;2023-05-07T10:53:21;3.58;;;1.88;;
18649;SDS011;9454;53.516;10.478;2023-05-07T10:56:44;2.03;;;1.75;;
18649;SDS011;9454;53.516;10.478;2023-05-07T10:59:56;2.85;;;1.70;;
18649;SDS011;9454;53.516;10.478;2023-05-07T11:03:07;2.67;;;1.63;;
18649;SDS011;9454;53.516;10.478;2023-05-07T11:06:38;3.17;;;1.60;;
18649;SDS011;9454;53.516;10.478;2023-05-07T11:09:54;1.88;;;1.50;;
18649;SDS011;9454;53.516;10.478;2023-05-07T11:16:44;3.75;;;1.65;;
18649;SDS011;9454;53.516;10.478;2023-05-07T11:19:58;2.38;;;1.48;;
18649;SDS011;9454;53.516;10.478;2023-05-07T11:26:42;1.83;;;1.30;;
18649;SDS011;9454;53.516;10.478;2023-05-07T11:30:01;1.70;;;1.40;;
18649;SDS011;9454;53.516;10.478;2023-05-07T11:33:09;1.77;;;1.27;;
18649;SDS011;9454;53.516;10.478;2023-05-07T11:36:16;1.90;;;1.30;;
18649;SDS011;9454;53.516;10.478;2023-05-07T11:39:27;1.15;;;1.05;;
18649;SDS011;9454;53.516;10.478;2023-05-07T11:42:36;1.40;;;1.30;;
18649;SDS011;9454;53.516;10.478;2023-05-07T11:45:40;2.75;;;1.25;;
18649;SDS011;9454;53.516;10.478;2023-05-07T11:48:47;1.52;;;1.20;;
18649;SDS011;9454;53.516;10.478;2023-05-07T11:51:53;3.78;;;1.40;;
18649;SDS011;9454;53.516;10.478;2023-05-07T11:55:02;2.13;;;1.50;;
18649;SDS011;9454;53.516;10.478;2023-05-07T11:58:08;1.67;;;1.33;;
18649;SDS011;9454;53.516;10.478;2023-05-07T12:01:12;1.92;;;1.17;;
18649;SDS011;9454;53.516;10.478;2023-05-07T12:04:21;3.17;;;1.52;;
18649;SDS011;9454;53.516;10.478;2023-05-07T12:07:27;3.00;;;1.00;;
18649;SDS011;9454;53.516;10.478;2023-05-07T12:10:32;1.45;;;1.05;;
18649;SDS011;9454;53.516;10.478;2023-05-07T12:13:36;3.25;;;1.48;;
18649;SDS011;9454;53.516;10.478;2023-05-07T12:16:41;3.00;;;1.55;;
18649;SDS011;9454;53.516;10.478;2023-05-07T12:19:46;2.33;;;1.20;;
18649;SDS011;9454;53.516;10.478;2023-05-07T12:22:52;1.83;;;1.35;;
18649;SDS011;9454;53.516;10.478;2023-05-07T12:25:59;1.58;;;1.25;;
18649;SDS011;9454;53.516;10.478;2023-05-07T12:29:07;2.35;;;1.50;;
18649;SDS011;9454;53.516;10.478;2023-05-07T12:32:12;2.72;;;1.73;;
18649;SDS011;9454;53.516;10.478;2023-05-07T12:35:25;1.40;;;1.17;;
18649;SDS011;9454;53.516;10.478;2023-05-07T12:38:34;2.33;;;1.23;;
18649;SDS011;9454;53.516;10.478;2023-05-07T12:41:53;1.30;;;1.20;;
18649;SDS011;9454;53.516;10.478;2023-05-07T12:44:57;1.55;;;1.45;;
18649;SDS011;9454;53.516;10.478;2023-05-07T12:48:01;2.80;;;1.27;;
18649;SDS011;9454;53.516;10.478;2023-05-07T12:51:05;2.60;;;1.27;;
18649;SDS011;9454;53.516;10.478;2023-05-07T12:54:28;3.40;;;1.52;;
18649;SDS011;9454;53.516;10.478;2023-05-07T12:57:37;4.68;;;1.48;;
18649;SDS011;9454;53.516;10.478;2023-05-07T13:00:41;1.65;;;0.80;;
18649;SDS011;9454;53.516;10.478;2023-05-07T13:03:47;1.30;;;1.10;;
18649;SDS011;9454;53.516;10.478;2023-05-07T13:06:52;1.50;;;1.20;;
18649;SDS011;9454;53.516;10.478;2023-05-07T13:09:57;1.77;;;1.30;;
18649;SDS011;9454;53.516;10.478;2023-05-07T13:13:02;1.50;;;0.98;;
18649;SDS011;9454;53.516;10.478;2023-05-07T13:16:07;1.30;;;0.98;;
18649;SDS011;9454;53.516;10.478;2023-05-07T13:19:13;4.78;;;1.35;;
18649;SDS011;9454;53.516;10.478;2023-05-07T13:22:17;7.13;;;1.30;;
18649;SDS011;9454;53.516;10.478;2023-05-07T13:25:25;4.18;;;1.40;;
18649;SDS011;9454;53.516;10.478;2023-05-07T13:28:29;3.53;;;1.50;;
18649;SDS011;9454;53.516;10.478;2023-05-07T13:31:33;1.20;;;1.10;;
18649;SDS011;9454;53.516;10.478;2023-05-07T13:34:37;1.27;;;1.00;;
18649;SDS011;9454;53.516;10.478;2023-05-07T13:37:41;1.38;;;1.05;;
18649;SDS011;9454;53.516;10.478;2023-05-07T13:40:46;3.70;;;1.00;;
18649;SDS011;9454;53.516;10.478;2023-05-07T13:43:50;3.00;;;1.58;;
18649;SDS011;9454;53.516;10.478;2023-05-07T13:46:58;2.83;;;1.35;;
18649;SDS011;9454;53.516;10.478;2023-05-07T13:50:03;2.35;;;1.20;;
18649;SDS011;9454;53.516;10.478;2023-05-07T13:53:14;2.00;;;1.40;;
18649;SDS011;9454;53.516;10.478;2023-05-07T13:56:20;2.42;;;1.15;;
18649;SDS011;9454;53.516;10.478;2023-05-07T13:59:25;2.65;;;1.20;;
18649;SDS011;9454;53.516;10.478;2023-05-07T14:02:29;2.90;;;1.40;;
18649;SDS011;9454;53.516;10.478;2023-05-07T14:05:34;1.98;;;1.20;;
18649;SDS011;9454;53.516;10.478;2023-05-07T14:08:38;1.60;;;1.13;;
18649;SDS011;9454;53.516;10.478;2023-05-07T14:11:45;2.05;;;1.40;;
18649;SDS011;9454;53.516;10.478;2023-05-07T14:14:52;1.95;;;1.30;;
18649;SDS011;9454;53.516;10.478;2023-05-07T14:17:57;2.05;;;1.48;;
18649;SDS011;9454;53.516;10.478;2023-05-07T14:21:04;3.25;;;1.38;;
18649;SDS011;9454;53.516;10.478;2023-05-07T14:24:12;2.33;;;1.48;;
18649;SDS011;9454;53.516;10.478;2023-05-07T14:27:33;1.65;;;1.40;;
18649;SDS011;9454;53.516;10.478;2023-05-07T14:30:36;1.85;;;1.02;;
18649;SDS011;9454;53.516;10.478;2023-05-07T14:33:42;1.55;;;1.15;;
18649;SDS011;9454;53.516;10.478;2023-05-07T14:36:47;1.98;;;1.27;;
18649;SDS011;9454;53.516;10.478;2023-05-07T14:39:51;1.27;;;1.15;;
18649;SDS011;9454;53.516;10.478;2023-05-07T14:42:59;1.23;;;1.13;;
18649;SDS011;9454;53.516;10.478;2023-05-07T14:46:03;1.98;;;1.42;;
18649;SDS011;9454;53.516;10.478;2023-05-07T14:49:13;1.70;;;1.15;;
18649;SDS011;9454;53.516;10.478;2023-05-07T14:52:18;2.33;;;1.10;;
18649;SDS011;9454;53.516;10.478;2023-05-07T14:55:24;2.55;;;1.20;;
18649;SDS011;9454;53.516;10.478;2023-05-07T14:58:29;1.05;;;0.93;;
18649;SDS011;9454;53.516;10.478;2023-05-07T15:01:33;2.20;;;1.20;;
18649;SDS011;9454;53.516;10.478;2023-05-07T15:04:39;1.45;;;1.10;;
18649;SDS011;9454;53.516;10.478;2023-05-07T15:07:47;1.95;;;1.13;;
18649;SDS011;9454;53.516;10.478;2023-05-07T15:10:51;2.03;;;1.30;;
18649;SDS011;9454;53.516;10.478;2023-05-07T15:13:56;3.75;;;1.25;;
18649;SDS011;9454;53.516;10.478;2023-05-07T15:17:00;1.77;;;1.30;;
18649;SDS011;9454;53.516;10.478;2023-05-07T15:20:04;1.65;;;1.05;;
18649;SDS011;9454;53.516;10.478;2023-05-07T15:23:09;0.98;;;0.50;;
18649;SDS011;9454;53.516;10.478;2023-05-07T15:26:18;1.33;;;1.10;;
18649;SDS011;9454;53.516;10.478;2023-05-07T15:29:25;1.30;;;1.00;;
18649;SDS011;9454;53.516;10.478;2023-05-07T15:32:30;5.05;;;1.25;;
18649;SDS011;9454;53.516;10.478;2023-05-07T15:35:35;2.10;;;1.20;;
18649;SDS011;9454;53.516;10.478;2023-05-07T15:38:39;1.73;;;0.95;;
18649;SDS011;9454;53.516;10.478;2023-05-07T15:41:44;2.67;;;1.10;;
18649;SDS011;9454;53.516;10.478;2023-05-07T15:44:49;2.42;;;1.27;;
18649;SDS011;9454;53.516;10.478;2023-05-07T15:47:55;2.47;;;1.40;;
18649;SDS011;9454;53.516;10.478;2023-05-07T15:50:58;3.00;;;1.23;;
18649;SDS011;9454;53.516;10.478;2023-05-07T15:54:03;2.88;;;1.40;;
18649;SDS011;9454;53.516;10.478;2023-05-07T15:57:07;1.38;;;0.93;;
18649;SDS011;9454;53.516;10.478;2023-05-07T16:00:15;2.72;;;1.30;;
18649;SDS011;9454;53.516;10.478;2023-05-07T16:03:19;1.27;;;1.10;;
18649;SDS011;9454;53.516;10.478;2023-05-07T16:06:23;1.88;;;1.00;;
18649;SDS011;9454;53.516;10.478;2023-05-07T16:09:28;2.08;;;1.30;;
18649;SDS011;9454;53.516;10.478;2023-05-07T16:12:34;2.15;;;1.20;;
18649;SDS011;9454;53.516;10.478;2023-05-07T16:15:40;3.67;;;1.10;;
18649;SDS011;9454;53.516;10.478;2023-05-07T16:18:46;1.38;;;1.10;;
18649;SDS011;9454;53.516;10.478;2023-05-07T16:21:50;1.58;;;0.95;;
18649;SDS011;9454;53.516;10.478;2023-05-07T16:24:56;1.38;;;1.27;;
18649;SDS011;9454;53.516;10.478;2023-05-07T16:28:03;2.80;;;1.30;;
18649;SDS011;9454;53.516;10.478;2023-05-07T16:31:09;2.58;;;1.05;;
18649;SDS011;9454;53.516;10.478;2023-05-07T16:34:12;1.90;;;1.27;;
18649;SDS011;9454;53.516;10.478;2023-05-07T16:37:18;1.42;;;1.15;;
18649;SDS011;9454;53.516;10.478;2023-05-07T16:40:23;1.92;;;1.20;;
18649;SDS011;9454;53.516;10.478;2023-05-07T16:43:27;3.90;;;1.27;;
18649;SDS011;9454;53.516;10.478;2023-05-07T16:46:32;1.92;;;1.10;;
18649;SDS011;9454;53.516;10.478;2023-05-07T16:49:35;2.95;;;1.30;;
18649;SDS011;9454;53.516;10.478;2023-05-07T16:52:39;6.97;;;1.40;;
18649;SDS011;9454;53.516;10.478;2023-05-07T16:55:43;2.97;;;1.95;;
18649;SDS011;9454;53.516;10.478;2023-05-07T16:58:48;3.55;;;2.13;;
18649;SDS011;9454;53.516;10.478;2023-05-07T17:01:53;6.97;;;2.67;;
18649;SDS011;9454;53.516;10.478;2023-05-07T17:05:02;2.83;;;1.55;;
18649;SDS011;9454;53.516;10.478;2023-05-07T17:08:07;2.65;;;1.40;;
18649;SDS011;9454;53.516;10.478;2023-05-07T17:11:15;2.92;;;1.27;;
18649;SDS011;9454;53.516;10.478;2023-05-07T17:14:20;1.60;;;1.30;;
18649;SDS011;9454;53.516;10.478;2023-05-07T17:17:25;3.25;;;1.50;;
18649;SDS011;9454;53.516;10.478;2023-05-07T17:20:33;1.55;;;1.10;;
18649;SDS011;9454;53.516;10.478;2023-05-07T17:23:36;3.90;;;1.50;;
18649;SDS011;9454;53.516;10.478;2023-05-07T17:26:41;1.90;;;1.20;;
18649;SDS011;9454;53.516;10.478;2023-05-07T17:29:48;2.33;;;1.38;;
18649;SDS011;9454;53.516;10.478;2023-05-07T17:32:59;2.13;;;1.30;;
18649;SDS011;9454;53.516;10.478;2023-05-07T17:36:21;2.33;;;1.52;;
18649;SDS011;9454;53.516;10.478;2023-05-07T17:39:25;2.58;;;1.60;;
18649;SDS011;9454;53.516;10.478;2023-05-07T17:42:29;3.55;;;1.60;;
18649;SDS011;9454;53.516;10.478;2023-05-07T17:45:34;5.93;;;2.20;;
18649;SDS011;9454;53.516;10.478;2023-05-07T17:48:40;3.55;;;1.65;;
18649;SDS011;9454;53.516;10.478;2023-05-07T17:51:43;9.43;;;1.85;;
18649;SDS011;9454;53.516;10.478;2023-05-07T17:54:56;3.72;;;1.80;;
18649;SDS011;9454;53.516;10.478;2023-05-07T17:58:00;3.38;;;1.80;;
18649;SDS011;9454;53.516;10.478;2023-05-07T18:01:07;2.30;;;1.65;;
18649;SDS011;9454;53.516;10.478;2023-05-07T18:04:12;4.53;;;1.83;;
18649;SDS011;9454;53.516;10.478;2023-05-07T18:07:18;2.28;;;1.50;;
18649;SDS011;9454;53.516;10.478;2023-05-07T18:10:24;1.85;;;1.05;;
18649;SDS011;9454;53.516;10.478;2023-05-07T18:13:29;3.15;;;1.20;;
18649;SDS011;9454;53.516;10.478;2023-05-07T18:16:33;1.50;;;1.13;;
18649;SDS011;9454;53.516;10.478;2023-05-07T18:19:40;3.88;;;1.38;;
18649;SDS011;9454;53.516;10.478;2023-05-07T18:22:44;3.42;;;1.35;;
18649;SDS011;9454;53.516;10.478;2023-05-07T18:25:48;2.28;;;1.55;;
18649;SDS011;9454;53.516;10.478;2023-05-07T18:28:55;4.22;;;1.35;;
18649;SDS011;9454;53.516;10.478;2023-05-07T18:31:59;2.25;;;1.20;;
18649;SDS011;9454;53.516;10.478;2023-05-07T18:35:06;2.60;;;1.27;;
18649;SDS011;9454;53.516;10.478;2023-05-07T18:38:10;1.92;;;1.10;;
18649;SDS011;9454;53.516;10.478;2023-05-07T18:41:17;1.60;;;1.20;;
18649;SDS011;9454;53.516;10.478;2023-05-07T18:44:22;2.15;;;1.33;;
18649;SDS011;9454;53.516;10.478;2023-05-07T18:47:27;2.30;;;1.40;;
18649;SDS011;9454;53.516;10.478;2023-05-07T18:50:32;3.28;;;1.60;;
18649;SDS011;9454;53.516;10.478;2023-05-07T18:53:40;1.52;;;1.25;;
18649;SDS011;9454;53.516;10.478;2023-05-07T18:56:44;3.95;;;1.45;;
18649;SDS011;9454;53.516;10.478;2023-05-07T18:59:48;1.55;;;1.40;;